Flugplatz Hohn Airport

Bericht für ETNH

vom 25.01. um 21:20 UTC

Wind 8 kt aus 210°

Sichtweite 4000 m

schwacher Sprühregen

feuchter Dunst

aufgebrochene Bewölkung in 400 ft

Temperatur 3.0°C

Taupunkt 2.0°C

Luftfeuchtigkeit 93%

Luftdruck 1018 hPa

ETNH 252120Z 21008KT 4000 -DZ BR BKN004 03/02 Q1018 YLO

Prognose für ETNH

vom 25.01. um 00:00 UTC

Zwischen 00:00 UTC und 00:00 UTC

Wind 8 kt aus 230°

Sichtweite 5000 m

feuchter Dunst

aufgebrochene Bewölkung in 400 ft


Zwischen 00:00 UTC und 00:00 UTC zeitweise

Wind 10 kt aus 220°

Sichtweite 1500 m

schwacher Sprühregen

aufgebrochene Bewölkung in 200 ft

TAF ETNH 251710Z 2518/2606 23008KT 5000 BR BKN004 TEMPO 2518/2606 22010KT 1500 -DZ BKN002 BY ETGL
Impressum